Time;durP1;ratioP1;P1;durP2;ratioP2;P2;SDS_P1;SDS_P2;PMS_P1;PMS_P2;Temp;Humidity;BMP_temperature;BMP_pressure;BME280_temperature;BME280_humidity;BME280_pressure;Samples;Min_cycle;Max_cycle;Signal;HPM_P1;HPM_P2
2022/07/20 00:01:31;;;;;;;2.90;1.30;;;29.70;46.50;;;;;;6216263;23;20004;-75
2022/07/20 00:03:57;;;;;;;5.85;1.80;;;29.70;46.60;;;;;;6215764;23;20281;-75
2022/07/20 00:06:23;;;;;;;1.75;1.10;;;29.70;46.50;;;;;;6216816;23;20007;-75
2022/07/20 00:11:33;;;;;;;2.03;1.20;;;29.60;46.30;;;;;;6215429;23;20024;-75
2022/07/20 00:14:03;;;;;;;3.90;1.20;;;29.60;46.50;;;;;;6215476;23;20005;-75
2022/07/20 00:16:32;;;;;;;2.78;1.33;;;29.60;46.40;;;;;;6215354;23;20011;-75
2022/07/20 00:18:58;;;;;;;1.38;0.93;;;29.60;46.20;;;;;;6215522;23;20059;-74
2022/07/20 00:21:24;;;;;;;2.70;1.30;;;29.60;45.80;;;;;;6215448;23;20370;-73
2022/07/20 00:23:50;;;;;;;1.90;1.27;;;29.60;45.80;;;;;;6215775;23;20004;-73
2022/07/20 00:26:16;;;;;;;2.00;1.30;;;29.60;45.70;;;;;;6215970;23;20007;-73
2022/07/20 00:28:42;;;;;;;2.50;1.30;;;29.60;45.80;;;;;;6215043;23;20336;-73
2022/07/20 00:31:08;;;;;;;6.35;1.60;;;29.60;45.70;;;;;;6215744;23;20096;-73
2022/07/20 00:33:34;;;;;;;2.25;1.20;;;29.50;45.30;;;;;;6215418;23;20015;-73
2022/07/20 00:35:59;;;;;;;3.17;1.50;;;29.50;45.40;;;;;;6215959;23;20334;-73
2022/07/20 00:38:25;;;;;;;3.40;1.20;;;29.50;45.70;;;;;;6215165;23;20008;-73
2022/07/20 00:40:51;;;;;;;3.22;1.27;;;29.50;45.90;;;;;;6215962;23;20378;-73
2022/07/20 00:43:16;;;;;;;4.03;1.10;;;29.50;46.00;;;;;;6215353;23;20323;-73
2022/07/20 00:45:42;;;;;;;3.17;1.58;;;29.50;46.20;;;;;;6216222;23;20055;-73
2022/07/20 00:48:08;;;;;;;3.05;1.35;;;29.50;46.50;;;;;;6215051;23;20000;-73
2022/07/20 00:50:34;;;;;;;2.53;1.42;;;29.50;46.50;;;;;;6216259;23;20000;-73
2022/07/20 00:53:00;;;;;;;2.83;1.83;;;29.50;46.70;;;;;;6215552;23;20331;-73
2022/07/20 00:55:26;;;;;;;2.67;1.60;;;29.40;46.70;;;;;;6216083;23;20055;-73
2022/07/20 00:57:52;;;;;;;5.97;1.75;;;29.40;46.90;;;;;;6215052;23;20012;-73
2022/07/20 01:00:18;;;;;;;4.13;1.77;;;29.40;47.00;;;;;;6215840;23;20036;-73
2022/07/20 01:02:44;;;;;;;3.90;2.00;;;29.40;47.10;;;;;;6215384;23;20004;-73
2022/07/20 01:05:13;;;;;;;3.58;1.92;;;29.40;47.30;;;;;;6215669;23;20043;-73
2022/07/20 01:07:48;;;;;;;5.57;2.42;;;29.40;47.50;;;;;;6214858;23;20001;-73
2022/07/20 01:10:15;;;;;;;3.97;1.70;;;29.30;47.60;;;;;;6214274;23;20324;-73
2022/07/20 01:12:47;;;;;;;6.30;1.80;;;29.30;47.70;;;;;;6215364;23;20071;-73
2022/07/20 01:15:13;;;;;;;3.55;2.20;;;29.30;48.00;;;;;;6214945;23;20001;-73
2022/07/20 01:17:40;;;;;;;2.65;1.80;;;29.30;48.30;;;;;;6214714;23;20011;-73
2022/07/20 01:20:06;;;;;;;3.45;1.50;;;29.30;48.70;;;;;;6214894;23;20004;-73
2022/07/20 01:22:32;;;;;;;1.85;1.45;;;29.20;49.00;;;;;;6214747;23;20367;-73
2022/07/20 01:24:59;;;;;;;2.35;1.48;;;29.20;49.10;;;;;;6215699;23;20000;-73
2022/07/20 01:27:24;;;;;;;1.85;1.40;;;29.20;49.30;;;;;;6215472;23;20400;-73
2022/07/20 01:29:50;;;;;;;6.43;2.53;;;29.20;49.50;;;;;;6214645;23;20071;-73
2022/07/20 01:32:16;;;;;;;4.90;2.03;;;29.20;49.70;;;;;;6215181;23;20426;-73
2022/07/20 01:34:41;;;;;;;4.88;2.60;;;29.20;50.00;;;;;;6215472;23;20429;-73
2022/07/20 01:37:07;;;;;;;3.10;1.95;;;29.10;50.30;;;;;;6214705;23;20012;-73
2022/07/20 01:39:33;;;;;;;3.58;2.53;;;29.00;50.50;;;;;;6214795;23;20595;-74
2022/07/20 01:41:58;;;;;;;8.02;2.83;;;29.10;50.80;;;;;;6215295;23;20001;-74
2022/07/20 01:44:24;;;;;;;3.20;2.13;;;29.00;50.80;;;;;;6214991;23;20042;-74
2022/07/20 01:46:51;;;;;;;5.05;2.17;;;29.00;51.10;;;;;;6215323;23;20051;-74
2022/07/20 01:49:18;;;;;;;4.40;2.00;;;29.00;51.40;;;;;;6214331;23;20423;-74
2022/07/20 01:51:44;;;;;;;5.43;2.17;;;28.90;51.50;;;;;;6215313;23;20005;-74
2022/07/20 01:54:12;;;;;;;3.15;1.85;;;28.90;51.70;;;;;;6214077;23;20012;-74
2022/07/20 01:56:42;;;;;;;3.58;2.10;;;28.90;52.00;;;;;;6215166;23;20005;-74
2022/07/20 01:59:08;;;;;;;2.83;2.03;;;28.80;52.20;;;;;;6214221;23;20008;-73
2022/07/20 02:01:34;;;;;;;3.10;2.20;;;28.80;52.60;;;;;;6214630;23;20001;-73
2022/07/20 02:04:00;;;;;;;4.13;2.15;;;28.80;53.00;;;;;;6215036;23;20028;-73
2022/07/20 02:06:26;;;;;;;5.32;2.40;;;28.70;53.10;;;;;;6215281;23;19997;-73
2022/07/20 02:08:52;;;;;;;4.03;2.30;;;28.70;53.30;;;;;;6214796;23;20434;-73
2022/07/20 02:11:17;;;;;;;2.95;2.17;;;28.60;53.80;;;;;;6214470;23;20008;-73
2022/07/20 02:13:43;;;;;;;4.03;2.00;;;28.50;53.90;;;;;;6215050;23;20331;-73
2022/07/20 02:16:14;;;;;;;3.40;1.85;;;28.50;54.00;;;;;;6215324;23;20088;-73
2022/07/20 02:18:41;;;;;;;3.47;1.95;;;28.50;54.20;;;;;;6214165;23;20075;-73
2022/07/20 02:21:07;;;;;;;2.97;2.00;;;28.50;54.40;;;;;;6214548;23;20000;-73
2022/07/20 02:23:33;;;;;;;5.82;1.75;;;28.50;54.70;;;;;;6214614;23;20001;-73
2022/07/20 02:25:58;;;;;;;2.97;2.13;;;28.50;54.80;;;;;;6215440;23;20126;-73
2022/07/20 02:28:24;;;;;;;2.20;1.83;;;28.40;54.70;;;;;;6213682;23;20003;-73
2022/07/20 02:30:50;;;;;;;3.17;1.95;;;28.40;54.80;;;;;;6214302;23;20076;-73
2022/07/20 02:33:16;;;;;;;3.10;1.90;;;28.40;54.90;;;;;;6187458;23;20308;-73
2022/07/20 02:35:41;;;;;;;4.43;2.03;;;28.30;55.10;;;;;;6215496;23;20055;-74
2022/07/20 02:38:07;;;;;;;2.47;1.88;;;28.30;55.30;;;;;;6214652;23;20004;-73
2022/07/20 02:40:33;;;;;;;6.85;2.60;;;28.20;55.50;;;;;;6214206;23;20419;-73
2022/07/20 02:42:58;;;;;;;6.10;2.58;;;28.20;55.70;;;;;;6214158;23;20000;-74
2022/07/20 02:45:24;;;;;;;4.40;2.90;;;28.20;55.70;;;;;;6215157;23;20001;-74
2022/07/20 02:47:50;;;;;;;5.07;3.03;;;28.20;55.80;;;;;;6214627;23;20068;-74
2022/07/20 02:50:16;;;;;;;5.85;3.63;;;28.20;56.00;;;;;;6215074;23;20331;-73
2022/07/20 02:52:42;;;;;;;10.30;4.38;;;28.20;56.20;;;;;;6187978;23;20012;-73
2022/07/20 02:55:09;;;;;;;7.68;3.83;;;28.20;56.20;;;;;;6214691;23;20074;-73
2022/07/20 02:57:35;;;;;;;7.03;3.60;;;28.10;56.20;;;;;;6214031;23;20415;-73
2022/07/20 03:00:01;;;;;;;4.88;3.05;;;28.10;56.30;;;;;;6213860;23;20054;-74
2022/07/20 03:02:26;;;;;;;4.13;3.25;;;28.10;56.40;;;;;;6213019;23;20043;-74
2022/07/20 03:04:52;;;;;;;4.63;2.45;;;28.10;56.50;;;;;;6214346;23;20001;-74
2022/07/20 03:07:18;;;;;;;8.95;2.70;;;28.10;56.70;;;;;;6213519;23;20012;-74
2022/07/20 03:09:44;;;;;;;7.47;3.53;;;28.00;56.90;;;;;;6214257;23;20080;-74
2022/07/20 03:12:09;;;;;;;5.07;3.10;;;27.90;57.20;;;;;;6214754;23;20052;-74
2022/07/20 03:14:35;;;;;;;4.43;2.85;;;27.90;57.60;;;;;;6217120;23;20050;-74
2022/07/20 03:17:01;;;;;;;7.05;2.55;;;27.80;57.50;;;;;;6216496;23;20363;-74
2022/07/20 03:19:27;;;;;;;5.25;3.15;;;27.80;57.90;;;;;;6216429;23;20427;-73
2022/07/20 03:21:52;;;;;;;3.58;2.70;;;27.70;58.20;;;;;;6215780;23;20079;-73
2022/07/20 03:24:18;;;;;;;6.28;3.10;;;27.70;57.90;;;;;;6216583;23;20090;-73
2022/07/20 03:26:44;;;;;;;4.05;2.65;;;27.70;58.20;;;;;;6216850;23;20488;-74
2022/07/20 03:29:09;;;;;;;7.22;2.85;;;27.70;58.40;;;;;;6215708;23;20085;-74
2022/07/20 03:31:35;;;;;;;5.13;2.80;;;27.70;58.50;;;;;;6189841;23;20008;-74
2022/07/20 03:34:01;;;;;;;2.75;2.22;;;27.80;58.80;;;;;;6216102;23;20028;-73
2022/07/20 03:36:26;;;;;;;6.10;2.72;;;27.70;58.70;;;;;;6216849;23;20000;-74
2022/07/20 03:38:52;;;;;;;4.47;2.42;;;27.70;58.80;;;;;;6215810;23;20009;-74
2022/07/20 03:41:17;;;;;;;3.00;2.22;;;27.70;59.00;;;;;;6216145;23;20016;-74
2022/07/20 03:43:44;;;;;;;5.60;2.47;;;27.70;59.20;;;;;;6215713;23;19997;-74
2022/07/20 03:46:11;;;;;;;4.82;2.45;;;27.70;59.40;;;;;;6216244;23;20001;-73
2022/07/20 03:48:37;;;;;;;3.70;2.47;;;27.70;59.50;;;;;;6215327;23;20063;-73
2022/07/20 03:51:04;;;;;;;3.47;2.30;;;27.60;60.00;;;;;;6216105;23;19997;-73
2022/07/20 03:53:29;;;;;;;3.17;1.92;;;27.60;60.00;;;;;;6215636;23;19997;-74
2022/07/20 03:55:55;;;;;;;5.93;2.70;;;27.50;60.50;;;;;;6216821;23;20000;-74
2022/07/20 03:58:21;;;;;;;5.45;2.80;;;27.50;60.90;;;;;;6216148;23;20450;-74
2022/07/20 04:00:46;;;;;;;11.07;3.58;;;27.50;61.20;;;;;;6215787;23;20320;-73
2022/07/20 04:03:13;;;;;;;4.32;2.47;;;27.50;62.40;;;;;;6215762;23;20070;-73
2022/07/20 04:05:38;;;;;;;5.15;2.70;;;27.50;61.80;;;;;;6216030;23;20032;-73
2022/07/20 04:08:08;;;;;;;4.47;2.30;;;27.50;62.20;;;;;;6215950;23;19997;-74
2022/07/20 04:10:35;;;;;;;3.63;1.98;;;27.40;62.40;;;;;;6216114;23;20376;-75
2022/07/20 04:13:02;;;;;;;5.20;2.25;;;27.40;62.80;;;;;;6216091;23;20059;-74
2022/07/20 04:15:28;;;;;;;3.20;2.20;;;27.40;62.80;;;;;;6216077;23;20008;-74
2022/07/20 04:17:54;;;;;;;2.95;1.98;;;27.40;63.00;;;;;;6215475;23;20011;-76
2022/07/20 04:20:19;;;;;;;4.55;2.35;;;27.40;63.20;;;;;;6216063;23;20331;-78
2022/07/20 04:22:45;;;;;;;4.15;2.58;;;27.40;63.20;;;;;;6215620;23;20000;-77
2022/07/20 04:25:11;;;;;;;5.35;2.25;;;27.40;63.40;;;;;;6215610;23;20084;-77
2022/07/20 04:27:36;;;;;;;11.18;3.67;;;27.40;63.40;;;;;;6215895;23;20359;-77
2022/07/20 04:30:03;;;;;;;6.20;3.88;;;27.40;63.20;;;;;;6188770;23;20005;-77
2022/07/20 04:32:29;;;;;;;6.80;3.55;;;27.40;63.20;;;;;;6214498;23;20008;-77
2022/07/20 04:34:55;;;;;;;6.97;4.22;;;27.40;63.00;;;;;;6214264;23;20308;-77
2022/07/20 04:37:21;;;;;;;12.32;6.90;;;27.40;62.80;;;;;;6214313;23;20534;-85
2022/07/20 04:39:47;;;;;;;18.02;9.60;;;27.40;62.50;;;;;;6211490;23;20097;-78
2022/07/20 04:42:13;;;;;;;16.58;11.75;;;27.40;61.70;;;;;;6215864;23;20024;-77
2022/07/20 04:44:39;;;;;;;16.25;12.02;;;27.30;60.90;;;;;;6215685;23;19997;-77
2022/07/20 04:47:04;;;;;;;24.55;17.55;;;27.30;60.40;;;;;;6215021;23;20055;-77
2022/07/20 04:49:30;;;;;;;33.05;20.17;;;27.40;59.90;;;;;;6215204;23;20008;-77
2022/07/20 04:51:56;;;;;;;31.65;22.20;;;27.40;58.90;;;;;;6215576;23;20000;-76
2022/07/20 04:54:22;;;;;;;35.28;24.15;;;27.40;58.00;;;;;;6215763;23;20583;-76
2022/07/20 04:56:48;;;;;;;35.92;25.88;;;27.50;57.10;;;;;;6213468;23;20430;-76
2022/07/20 04:59:14;;;;;;;34.30;25.80;;;27.40;56.60;;;;;;6214579;23;20000;-76
2022/07/20 05:01:40;;;;;;;34.67;26.45;;;27.50;56.30;;;;;;6213851;23;20001;-82
2022/07/20 05:04:07;;;;;;;31.35;24.55;;;27.50;56.00;;;;;;6213210;23;20031;-81
2022/07/20 05:06:32;;;;;;;36.47;26.52;;;27.60;55.70;;;;;;6186563;23;20134;-76
2022/07/20 05:08:58;;;;;;;37.17;27.60;;;27.50;54.70;;;;;;6214592;23;20047;-76
2022/07/20 05:11:26;;;;;;;31.48;24.38;;;27.50;54.00;;;;;;6215724;23;20079;-76
2022/07/20 05:13:52;;;;;;;38.85;27.52;;;27.50;53.80;;;;;;6188323;23;20009;-73
2022/07/20 05:16:18;;;;;;;36.22;23.38;;;27.50;53.50;;;;;;6215275;23;20015;-77
2022/07/20 05:18:44;;;;;;;33.50;23.85;;;27.60;53.30;;;;;;6214203;23;20005;-75
2022/07/20 05:21:10;;;;;;;35.78;23.90;;;27.50;53.00;;;;;;6211576;23;20076;-73
2022/07/20 05:23:36;;;;;;;27.92;22.45;;;27.50;53.00;;;;;;6212439;23;19997;-76
2022/07/20 05:26:03;;;;;;;30.08;21.98;;;27.60;53.00;;;;;;6213901;23;20076;-80
2022/07/20 05:28:29;;;;;;;27.92;20.95;;;27.50;53.00;;;;;;6187392;23;20011;-83
2022/07/20 05:30:55;;;;;;;25.92;19.63;;;27.60;53.30;;;;;;6213243;23;20096;-82
2022/07/20 05:33:21;;;;;;;31.15;22.17;;;27.60;53.40;;;;;;6213608;23;20000;-75
2022/07/20 05:35:49;;;;;;;30.00;21.15;;;27.60;53.70;;;;;;6213857;23;20354;-74
2022/07/20 05:38:16;;;;;;;28.25;20.70;;;27.70;53.50;;;;;;6215175;23;20011;-75
2022/07/20 05:40:41;;;;;;;57.53;23.05;;;27.70;53.40;;;;;;6186107;23;20036;-75
2022/07/20 05:43:07;;;;;;;31.75;22.77;;;27.70;53.60;;;;;;6215491;23;19997;-75
2022/07/20 05:45:33;;;;;;;33.83;22.73;;;27.80;53.40;;;;;;6215391;23;20304;-81
2022/07/20 05:47:59;;;;;;;26.95;21.58;;;27.80;53.10;;;;;;6215848;23;20454;-82
2022/07/20 05:50:25;;;;;;;32.97;23.63;;;27.80;53.00;;;;;;6210794;23;20113;-81
2022/07/20 05:52:50;;;;;;;36.40;25.90;;;27.80;52.40;;;;;;6209995;23;20011;-79
2022/07/20 05:55:17;;;;;;;29.70;20.85;;;27.80;52.20;;;;;;6212609;23;20001;-79
2022/07/20 05:57:42;;;;;;;28.50;20.77;;;27.80;52.10;;;;;;6213931;23;20011;-78
2022/07/20 06:00:09;;;;;;;27.90;21.58;;;27.80;52.00;;;;;;6214881;23;20012;-77
2022/07/20 06:02:35;;;;;;;25.88;20.63;;;27.90;52.30;;;;;;6214286;23;20070;-79
2022/07/20 06:05:00;;;;;;;28.42;21.83;;;27.90;52.40;;;;;;6214255;23;19997;-80
2022/07/20 06:07:26;;;;;;;26.63;19.63;;;28.00;52.80;;;;;;6215347;23;20024;-79
2022/07/20 06:09:52;;;;;;;29.17;20.42;;;28.00;52.80;;;;;;6215648;23;20028;-79
2022/07/20 06:12:17;;;;;;;34.10;23.73;;;28.00;52.30;;;;;;6215243;23;20011;-79
2022/07/20 06:14:43;;;;;;;24.52;19.25;;;28.00;51.50;;;;;;6215291;23;20000;-79
2022/07/20 06:17:11;;;;;;;24.25;18.40;;;28.00;51.80;;;;;;6215304;23;20012;-79
2022/07/20 06:19:37;;;;;;;22.00;16.65;;;27.90;52.20;;;;;;6188144;23;20019;-79
2022/07/20 06:22:03;;;;;;;19.63;14.45;;;28.00;51.90;;;;;;6213990;23;20016;-79
2022/07/20 06:24:28;;;;;;;27.90;18.52;;;28.00;52.20;;;;;;6186663;23;20032;-79
2022/07/20 06:26:54;;;;;;;23.17;15.68;;;28.00;51.40;;;;;;6214917;23;20361;-79
2022/07/20 06:29:20;;;;;;;23.27;17.05;;;27.80;52.00;;;;;;6214816;23;20024;-79
2022/07/20 06:31:46;;;;;;;24.77;16.05;;;27.80;52.30;;;;;;6215494;23;20008;-79
2022/07/20 06:34:13;;;;;;;18.17;13.80;;;27.80;52.60;;;;;;6213419;23;20000;-79
2022/07/20 06:36:39;;;;;;;17.70;12.40;;;27.80;52.40;;;;;;6214891;23;20005;-79
2022/07/20 06:39:04;;;;;;;17.75;12.68;;;27.80;52.40;;;;;;6214085;23;20035;-79
2022/07/20 06:41:30;;;;;;;13.93;9.95;;;27.80;51.90;;;;;;6214902;23;20047;-78
2022/07/20 06:43:56;;;;;;;14.50;9.65;;;27.90;51.90;;;;;;6213757;23;20046;-79
2022/07/20 06:46:21;;;;;;;20.17;11.52;;;28.00;52.00;;;;;;6214853;23;20001;-78
2022/07/20 06:48:47;;;;;;;16.25;9.55;;;28.00;52.00;;;;;;6214759;23;20415;-78
2022/07/20 06:51:13;;;;;;;16.45;10.38;;;28.10;51.80;;;;;;6214392;23;20000;-79
2022/07/20 06:53:38;;;;;;;15.95;9.05;;;28.20;52.00;;;;;;6213283;23;20028;-79
2022/07/20 06:56:04;;;;;;;19.55;9.77;;;28.30;52.20;;;;;;6214204;23;20340;-76
2022/07/20 06:58:30;;;;;;;13.70;8.85;;;28.40;52.30;;;;;;6215519;23;20001;-76
2022/07/20 07:00:56;;;;;;;13.63;8.32;;;28.40;52.10;;;;;;6215016;23;20079;-76
2022/07/20 07:03:21;;;;;;;20.00;9.15;;;28.50;51.90;;;;;;6215263;23;19997;-76
2022/07/20 07:05:47;;;;;;;9.48;7.72;;;28.50;51.70;;;;;;6213822;23;19997;-76
2022/07/20 07:08:13;;;;;;;12.57;8.35;;;28.60;51.70;;;;;;6214336;23;20492;-77
2022/07/20 07:10:38;;;;;;;12.18;7.75;;;28.70;51.40;;;;;;6214345;23;20334;-75
2022/07/20 07:13:04;;;;;;;17.42;9.57;;;28.80;51.10;;;;;;6214835;23;20000;-75
2022/07/20 07:15:30;;;;;;;11.45;8.00;;;28.80;50.00;;;;;;6214418;23;20071;-75
2022/07/20 07:17:56;;;;;;;9.95;6.97;;;28.70;49.70;;;;;;6214678;23;20024;-76
2022/07/20 07:20:22;;;;;;;8.80;5.40;;;28.80;49.00;;;;;;6214585;23;20004;-75
2022/07/20 07:22:47;;;;;;;6.82;5.00;;;28.80;49.40;;;;;;6212980;23;20422;-76
2022/07/20 07:25:13;;;;;;;10.32;5.80;;;28.90;49.00;;;;;;6188317;23;20445;-76
2022/07/20 07:27:39;;;;;;;8.48;6.05;;;29.00;49.00;;;;;;6213210;23;20020;-78
2022/07/20 07:30:05;;;;;;;9.40;5.50;;;29.10;49.20;;;;;;6213618;23;20040;-79
2022/07/20 07:32:31;;;;;;;9.98;4.88;;;29.20;49.00;;;;;;6213548;23;20216;-74
2022/07/20 07:34:57;;;;;;;9.13;5.45;;;29.20;48.80;;;;;;6212683;23;20104;-74
2022/07/20 07:37:23;;;;;;;8.93;5.32;;;29.30;48.70;;;;;;6213699;23;20005;-75
2022/07/20 07:39:49;;;;;;;6.22;4.28;;;29.30;48.60;;;;;;6212562;23;20415;-76
2022/07/20 07:42:14;;;;;;;9.07;4.07;;;29.40;48.50;;;;;;6213022;23;20001;-75
2022/07/20 07:44:40;;;;;;;5.82;3.95;;;29.50;48.20;;;;;;6188027;23;20035;-75
2022/07/20 07:47:06;;;;;;;7.95;3.75;;;29.50;47.80;;;;;;6213604;23;20043;-76
2022/07/20 07:49:32;;;;;;;3.63;3.05;;;29.60;46.60;;;;;;6213820;23;20035;-76
2022/07/20 07:51:58;;;;;;;4.82;2.88;;;29.60;46.80;;;;;;6214731;23;20004;-76
2022/07/20 07:54:23;;;;;;;4.45;3.25;;;29.70;46.20;;;;;;6214527;23;20015;-75
2022/07/20 07:56:49;;;;;;;3.72;2.90;;;29.80;46.20;;;;;;6214744;23;20608;-76
2022/07/20 07:59:15;;;;;;;3.55;2.70;;;29.90;45.90;;;;;;6214585;23;20001;-76
2022/07/20 08:01:41;;;;;;;3.30;2.85;;;30.00;45.90;;;;;;6216740;23;20005;-75
2022/07/20 08:04:06;;;;;;;5.05;2.92;;;30.00;45.90;;;;;;6217176;23;20007;-75
2022/07/20 08:06:32;;;;;;;4.07;2.67;;;30.10;45.50;;;;;;6216837;23;20024;-76
2022/07/20 08:08:58;;;;;;;3.17;2.80;;;30.20;45.50;;;;;;6216323;23;20003;-76
2022/07/20 08:11:24;;;;;;;4.07;2.30;;;30.20;45.20;;;;;;6217105;23;20011;-76
2022/07/20 08:13:50;;;;;;;3.67;1.90;;;30.30;45.10;;;;;;6217603;23;20070;-76
2022/07/20 08:16:16;;;;;;;5.43;1.70;;;30.40;45.30;;;;;;6190437;23;20084;-77
2022/07/20 08:18:41;;;;;;;2.47;1.83;;;30.40;44.90;;;;;;6216644;23;20028;-74
2022/07/20 08:21:07;;;;;;;4.70;3.17;;;30.50;44.20;;;;;;6217086;23;20000;-74
2022/07/20 08:23:33;;;;;;;2.90;2.13;;;30.60;44.30;;;;;;6217018;23;20001;-76
2022/07/20 08:25:58;;;;;;;5.05;2.67;;;30.70;44.30;;;;;;6215438;23;20024;-76
2022/07/20 08:28:24;;;;;;;3.17;2.50;;;30.70;44.20;;;;;;6215080;23;20008;-73
2022/07/20 08:30:52;;;;;;;6.68;2.88;;;30.80;44.20;;;;;;6216454;23;20004;-75
2022/07/20 08:33:18;;;;;;;5.55;2.40;;;30.80;44.30;;;;;;6217047;23;20015;-74
2022/07/20 08:35:44;;;;;;;6.85;3.85;;;31.00;44.30;;;;;;6217011;23;20032;-75
2022/07/20 08:38:10;;;;;;;4.15;2.92;;;31.00;43.30;;;;;;6216509;23;20008;-75
2022/07/20 08:40:37;;;;;;;2.33;2.10;;;31.00;44.20;;;;;;6216341;23;20471;-76
2022/07/20 08:43:03;;;;;;;3.72;2.55;;;31.00;44.00;;;;;;6217761;23;20000;-75
2022/07/20 08:45:29;;;;;;;3.78;2.17;;;31.00;42.40;;;;;;6217182;23;20001;-75
2022/07/20 08:47:58;;;;;;;4.32;2.13;;;31.10;43.10;;;;;;6217101;23;20062;-74
2022/07/20 08:50:26;;;;;;;2.50;1.65;;;31.20;43.00;;;;;;6216060;23;20019;-74
2022/07/20 08:52:53;;;;;;;3.00;1.90;;;31.30;43.20;;;;;;6189978;23;20355;-75
2022/07/20 08:55:19;;;;;;;3.75;2.35;;;31.30;42.50;;;;;;6216364;23;20427;-75
2022/07/20 08:57:45;;;;;;;3.42;2.33;;;31.40;43.00;;;;;;6217210;23;20051;-75
2022/07/20 09:00:11;;;;;;;2.60;1.83;;;31.40;43.20;;;;;;6216421;23;20027;-75
2022/07/20 09:02:52;;;;;;;2.75;2.08;;;31.60;43.50;;;;;;6214945;23;20008;-75
2022/07/20 09:05:20;;;;;;;2.15;1.35;;;31.60;42.00;;;;;;6216071;23;19996;-75
2022/07/20 09:07:49;;;;;;;6.88;1.75;;;31.70;41.00;;;;;;6215897;23;20007;-73
2022/07/20 09:10:21;;;;;;;3.13;1.20;;;31.80;36.60;;;;;;6215019;23;20435;-73
2022/07/20 09:12:56;;;;;;;4.78;1.73;;;31.90;36.80;;;;;;6216267;23;20410;-74
2022/07/20 09:15:38;;;;;;;6.20;2.15;;;31.90;36.40;;;;;;6189712;23;20047;-74
2022/07/20 09:18:16;;;;;;;6.75;1.65;;;31.90;38.60;;;;;;6216971;23;20028;-73
2022/07/20 09:20:48;;;;;;;2.55;1.45;;;32.10;39.60;;;;;;6215646;23;20011;-73
2022/07/20 09:23:17;;;;;;;2.47;1.15;;;32.20;40.70;;;;;;6216792;23;19996;-73
2022/07/20 09:25:57;;;;;;;5.95;1.40;;;32.30;40.20;;;;;;6216395;23;20001;-73
2022/07/20 09:28:34;;;;;;;2.60;1.80;;;32.40;39.60;;;;;;6216531;23;20021;-73
2022/07/20 09:31:00;;;;;;;3.50;1.83;;;32.40;39.50;;;;;;6215941;23;20370;-73
2022/07/20 09:33:30;;;;;;;3.20;1.75;;;32.40;39.00;;;;;;6215847;23;20005;-73
2022/07/20 09:35:58;;;;;;;2.05;1.55;;;32.50;38.80;;;;;;6216114;23;20005;-72
2022/07/20 09:38:41;;;;;;;2.63;1.45;;;32.50;40.10;;;;;;6216723;23;20015;-73
2022/07/20 09:41:26;;;;;;;3.80;1.80;;;32.50;39.20;;;;;;6216656;23;20036;-73
2022/07/20 09:43:53;;;;;;;3.20;1.83;;;32.60;39.50;;;;;;6191351;23;20080;-73
2022/07/20 09:46:22;;;;;;;5.03;1.50;;;32.70;40.00;;;;;;6214810;23;20047;-74
2022/07/20 09:48:54;;;;;;;2.42;1.65;;;32.80;40.10;;;;;;6215535;23;20099;-73
2022/07/20 09:51:20;;;;;;;3.10;1.42;;;32.80;38.10;;;;;;6215321;23;19996;-73
2022/07/20 09:53:46;;;;;;;4.63;1.60;;;32.90;39.30;;;;;;6216027;23;19997;-74
2022/07/20 09:56:15;;;;;;;3.08;1.65;;;33.00;38.90;;;;;;6215244;23;20068;-74
2022/07/20 09:58:45;;;;;;;3.10;1.60;;;33.10;39.50;;;;;;6215577;23;20320;-74
2022/07/20 10:01:15;;;;;;;3.70;2.17;;;33.20;39.00;;;;;;6215018;23;20453;-73
2022/07/20 10:03:41;;;;;;;2.55;1.63;;;33.30;37.50;;;;;;6215778;23;20407;-74
2022/07/20 10:06:07;;;;;;;4.50;1.65;;;33.30;38.40;;;;;;6215314;23;20080;-75
2022/07/20 10:08:33;;;;;;;4.03;1.80;;;33.40;38.40;;;;;;6215644;23;20050;-72
2022/07/20 10:10:59;;;;;;;2.95;1.70;;;33.50;39.10;;;;;;6215290;23;20001;-73
2022/07/20 10:13:25;;;;;;;2.10;1.35;;;33.50;37.90;;;;;;6215291;23;20058;-73
2022/07/20 10:16:05;;;;;;;3.65;2.20;;;33.60;38.40;;;;;;6214550;23;20001;-74
2022/07/20 10:18:31;;;;;;;3.78;1.67;;;33.70;37.10;;;;;;6214965;23;20005;-74
2022/07/20 10:20:58;;;;;;;2.85;1.80;;;33.80;37.80;;;;;;6213058;23;20593;-75
2022/07/20 10:23:26;;;;;;;7.32;2.20;;;33.90;37.90;;;;;;6188686;23;20011;-76
2022/07/20 10:25:52;;;;;;;3.55;1.80;;;34.00;36.90;;;;;;6215220;23;20001;-74
2022/07/20 10:28:29;;;;;;;2.83;1.65;;;34.00;37.60;;;;;;6215804;23;20001;-74
2022/07/20 10:31:00;;;;;;;3.17;1.75;;;34.10;37.60;;;;;;6214170;23;20072;-75
2022/07/20 10:33:26;;;;;;;1.70;1.30;;;34.30;37.40;;;;;;6215225;23;20031;-75
2022/07/20 10:36:41;;;;;;;3.30;1.58;;;34.30;37.10;;;;;;6215497;23;20005;-72
2022/07/20 10:38:39;;;;;;;4.93;1.98;;;34.40;37.50;;;;;;6214811;23;20042;-78
2022/07/20 10:44:21;;;;;;;3.40;1.38;;;34.70;38.30;;;;;;6214803;23;20389;-78
2022/07/20 10:46:48;;;;;;;4.00;1.63;;;34.80;37.60;;;;;;6215522;23;20536;-78
2022/07/20 10:49:14;;;;;;;5.57;2.03;;;35.00;37.80;;;;;;6215206;23;20012;-78
2022/07/20 10:51:40;;;;;;;3.42;1.85;;;35.10;36.20;;;;;;6215501;23;20076;-78
2022/07/20 10:54:33;;;;;;;3.50;2.08;;;35.10;37.00;;;;;;6215666;23;20030;-78
2022/07/20 10:57:01;;;;;;;2.47;1.75;;;35.20;36.20;;;;;;6216023;23;20001;-78
2022/07/20 10:59:27;;;;;;;10.02;2.85;;;35.20;36.90;;;;;;6214880;23;20004;-78
2022/07/20 11:01:53;;;;;;;2.65;1.67;;;35.30;36.20;;;;;;6215730;23;19997;-78
2022/07/20 11:04:22;;;;;;;2.40;1.63;;;35.20;35.70;;;;;;6214955;23;20511;-78
2022/07/20 11:06:49;;;;;;;3.35;1.65;;;35.30;36.30;;;;;;6215551;23;20004;-78
2022/07/20 11:09:15;;;;;;;5.10;2.30;;;35.40;36.60;;;;;;6215144;23;20031;-77
2022/07/20 11:11:42;;;;;;;4.38;2.40;;;35.60;37.10;;;;;;6215927;23;20080;-77
2022/07/20 11:14:10;;;;;;;3.20;2.28;;;35.70;37.00;;;;;;6188599;23;20107;-77
2022/07/20 11:16:37;;;;;;;4.28;3.00;;;35.80;37.30;;;;;;6215301;23;20030;-77
2022/07/20 11:19:04;;;;;;;5.75;3.05;;;36.00;37.00;;;;;;6214911;23;20427;-78
2022/07/20 11:21:33;;;;;;;4.47;2.40;;;36.10;36.40;;;;;;6215486;23;20028;-78
2022/07/20 11:23:58;;;;;;;3.25;2.53;;;36.20;36.50;;;;;;6189008;23;20011;-76
2022/07/20 11:26:24;;;;;;;7.38;3.63;;;36.40;36.50;;;;;;6215776;23;20001;-76
2022/07/20 11:28:55;;;;;;;9.52;4.45;;;36.50;36.70;;;;;;6214090;23;20005;-76
2022/07/20 11:31:27;;;;;;;7.57;3.80;;;36.70;36.20;;;;;;6215342;23;20004;-76
2022/07/20 11:33:54;;;;;;;5.20;3.58;;;36.80;36.90;;;;;;6216499;23;20024;-76
2022/07/20 11:36:32;;;;;;;7.57;4.28;;;37.10;36.90;;;;;;6216474;23;20001;-76
2022/07/20 11:39:05;;;;;;;4.45;3.50;;;37.40;36.80;;;;;;6189412;23;20005;-76
2022/07/20 11:41:34;;;;;;;4.55;3.60;;;37.70;36.50;;;;;;6217145;23;20008;-76
2022/07/20 11:44:01;;;;;;;6.28;3.50;;;38.20;36.30;;;;;;6216857;23;20083;-76
2022/07/20 11:46:29;;;;;;;6.80;3.70;;;38.50;35.60;;;;;;6217164;23;20012;-77
2022/07/20 11:49:02;;;;;;;6.03;3.72;;;38.80;35.00;;;;;;6216106;23;20083;-79
2022/07/20 11:51:29;;;;;;;4.70;3.75;;;39.10;34.60;;;;;;6216743;23;20055;-78
2022/07/20 11:53:56;;;;;;;6.03;3.55;;;39.40;34.00;;;;;;6216613;23;20000;-78
2022/07/20 11:56:24;;;;;;;10.52;4.05;;;39.50;33.90;;;;;;6217139;23;20071;-78
2022/07/20 11:58:51;;;;;;;8.73;3.67;;;39.80;34.00;;;;;;6216156;23;20043;-78
2022/07/20 12:01:26;;;;;;;4.78;3.50;;;40.00;33.60;;;;;;6216461;23;20005;-77
2022/07/20 12:03:56;;;;;;;4.53;3.35;;;40.20;32.90;;;;;;6216781;23;20075;-77
2022/07/20 12:06:24;;;;;;;5.38;3.22;;;40.40;33.00;;;;;;6216143;23;20004;-78
2022/07/20 12:09:10;;;;;;;4.30;2.97;;;40.50;32.70;;;;;;6216816;23;20428;-77
2022/07/20 12:11:53;;;;;;;5.95;3.22;;;40.70;32.60;;;;;;6215782;23;20001;-77
2022/07/20 12:14:31;;;;;;;5.32;3.10;;;40.80;32.60;;;;;;6216324;23;20431;-76
2022/07/20 12:17:20;;;;;;;3.67;2.97;;;40.80;32.20;;;;;;6215732;23;20032;-76
2022/07/20 12:19:48;;;;;;;3.95;2.65;;;41.00;32.00;;;;;;6215395;23;20004;-78
2022/07/20 12:22:15;;;;;;;11.25;3.15;;;41.00;31.40;;;;;;6215368;23;19997;-78
2022/07/20 12:24:55;;;;;;;6.85;3.97;;;41.10;31.60;;;;;;6216657;23;20007;-78
2022/07/20 12:27:23;;;;;;;5.20;3.83;;;41.30;31.80;;;;;;6215637;23;20418;-77
2022/07/20 12:29:49;;;;;;;8.77;3.60;;;41.30;32.40;;;;;;6216564;23;20008;-77
2022/07/20 12:32:17;;;;;;;2.95;2.63;;;41.30;31.80;;;;;;6215739;23;20004;-78
2022/07/20 12:34:51;;;;;;;3.55;2.72;;;41.30;31.70;;;;;;6216405;23;20441;-78
2022/07/20 12:37:16;;;;;;;6.82;3.08;;;41.30;31.60;;;;;;6188952;23;20027;-77
2022/07/20 12:39:47;;;;;;;3.90;3.10;;;41.40;31.70;;;;;;6216323;23;20416;-78
2022/07/20 12:42:21;;;;;;;6.05;3.35;;;41.50;31.70;;;;;;6189795;23;20009;-77
2022/07/20 12:44:47;;;;;;;5.93;3.45;;;41.50;31.50;;;;;;6189884;23;20008;-77
2022/07/20 12:47:14;;;;;;;4.68;3.72;;;41.60;31.90;;;;;;6215451;23;20028;-76
2022/07/20 12:49:41;;;;;;;5.70;3.67;;;41.60;30.90;;;;;;6216009;23;20001;-77